Time;durP1;ratioP1;P1;durP2;ratioP2;P2;SDS_P1;SDS_P2;PMS_P1;PMS_P2;Temp;Humidity;BMP_temperature;BMP_pressure;BME280_temperature;BME280_humidity;BME280_pressure;Samples;Min_cycle;Max_cycle;Signal;HPM_P1;HPM_P2
2021/05/04 05:31:41;;;;;;;14.75;8.68;;;;;;;5.08;78.94;100161.53;1706369;79;26739;-62
2021/05/04 05:34:08;;;;;;;14.98;9.03;;;;;;;5.28;77.93;100158.47;1705072;83;26531;-63
2021/05/04 05:36:35;;;;;;;16.35;8.63;;;;;;;5.42;77.29;100166.19;1705024;83;25650;-62
2021/05/04 05:39:04;;;;;;;13.72;7.95;;;;;;;5.54;76.56;100165.84;1705358;83;26176;-62
2021/05/04 05:41:30;;;;;;;15.75;8.35;;;;;;;5.66;76.03;100160.92;1705996;83;25740;-62
2021/05/04 05:43:57;;;;;;;14.03;8.85;;;;;;;5.80;75.46;100161.09;1704305;83;25940;-62
2021/05/04 05:46:23;;;;;;;16.25;8.48;;;;;;;5.93;75.14;100156.98;1705477;83;25649;-61
2021/05/04 05:48:51;;;;;;;14.53;8.83;;;;;;;6.07;74.87;100155.81;1702985;83;25681;-62
2021/05/04 05:51:17;;;;;;;12.37;8.45;;;;;;;6.22;74.54;100153.55;1703221;83;25783;-62
2021/05/04 05:53:44;;;;;;;15.18;8.48;;;;;;;6.34;74.24;100145.90;1704260;83;25617;-61
2021/05/04 05:56:10;;;;;;;16.67;8.10;;;;;;;6.50;74.35;100147.35;1675091;83;25603;-60
2021/05/04 05:58:37;;;;;;;14.63;8.90;;;;;;;6.72;74.13;100145.50;1699354;83;25645;-60
2021/05/04 06:01:04;;;;;;;15.40;8.35;;;;;;;6.92;73.55;100136.92;1703417;83;25788;-60
2021/05/04 06:03:31;;;;;;;12.82;8.40;;;;;;;7.09;72.86;100131.85;1704873;83;26449;-60
2021/05/04 06:05:57;;;;;;;12.28;8.15;;;;;;;7.27;72.55;100134.31;1703159;83;26387;-60
2021/05/04 06:08:24;;;;;;;11.10;7.58;;;;;;;7.41;72.26;100130.34;1704540;83;25656;-60
2021/05/04 06:10:51;;;;;;;11.80;8.18;;;;;;;7.60;71.98;100122.81;1704983;83;25646;-60
2021/05/04 06:13:19;;;;;;;12.78;7.80;;;;;;;7.74;70.38;100122.30;1704884;83;25672;-60
2021/05/04 06:15:46;;;;;;;8.30;6.97;;;;;;;7.82;70.70;100118.95;1704800;83;26307;-60
2021/05/04 06:18:14;;;;;;;11.40;7.53;;;;;;;7.95;70.26;100119.27;1703572;83;25581;-60
2021/05/04 06:20:43;;;;;;;10.88;7.03;;;;;;;8.08;69.95;100126.59;1703369;83;25721;-60
2021/05/04 06:23:09;;;;;;;12.88;6.55;;;;;;;8.21;69.77;100114.26;1704232;83;25591;-60
2021/05/04 06:25:36;;;;;;;9.25;6.08;;;;;;;8.37;69.32;100118.81;1703982;83;26057;-60
2021/05/04 06:30:41;;;;;;;11.05;6.85;;;;;;;8.78;69.16;100106.73;1803105;78;35187;-60
2021/05/04 06:33:11;;;;;;;9.53;5.92;;;;;;;8.91;68.63;100102.40;1789083;79;25731;-58
2021/05/04 06:35:44;;;;;;;9.03;5.78;;;;;;;9.05;68.22;100098.32;1788010;79;25702;-59
2021/05/04 06:38:13;;;;;;;8.63;5.80;;;;;;;9.23;65.55;100101.98;1741619;80;25668;-59
2021/05/04 06:40:41;;;;;;;11.00;5.78;;;;;;;9.37;66.58;100097.89;1745501;80;25599;-60
2021/05/04 06:43:09;;;;;;;7.37;5.60;;;;;;;9.58;66.32;100094.71;1785844;79;25667;-60
2021/05/04 06:45:38;;;;;;;9.43;5.47;;;;;;;9.74;65.76;100095.95;1741536;80;25655;-59
2021/05/04 06:48:06;;;;;;;7.10;4.90;;;;;;;9.99;64.43;100093.70;1746141;81;25924;-59
2021/05/04 06:50:33;;;;;;;5.92;4.95;;;;;;;10.14;63.80;100087.89;1747529;81;25687;-59
2021/05/04 06:53:00;;;;;;;7.40;5.80;;;;;;;10.31;62.81;100083.69;1783014;79;25715;-59
2021/05/04 06:55:27;;;;;;;9.43;6.00;;;;;;;10.43;61.66;100082.00;1784859;79;25884;-59
2021/05/04 06:57:53;;;;;;;8.73;5.47;;;;;;;10.58;61.51;100073.23;1782034;79;25675;-59
2021/05/04 07:00:20;;;;;;;6.90;5.40;;;;;;;10.77;60.93;100074.30;1784602;79;26598;-59
2021/05/04 07:02:48;;;;;;;7.65;4.80;;;;;;;10.92;59.47;100071.71;1744674;81;25617;-60
2021/05/04 07:05:16;;;;;;;8.33;5.17;;;;;;;11.05;58.67;100062.66;1780988;79;25652;-60
2021/05/04 07:07:44;;;;;;;9.85;5.17;;;;;;;11.18;57.82;100053.56;1781989;79;25735;-59
2021/05/04 07:10:12;;;;;;;6.97;5.15;;;;;;;11.30;58.09;100050.78;1786438;79;26020;-60
2021/05/04 07:12:40;;;;;;;5.95;4.60;;;;;;;11.43;58.28;100055.80;1787068;79;25714;-59
2021/05/04 07:15:08;;;;;;;7.47;5.20;;;;;;;11.56;57.29;100047.50;1787947;79;25874;-59
2021/05/04 07:17:35;;;;;;;8.90;5.20;;;;;;;11.67;57.57;100045.80;1745920;81;26557;-58
2021/05/04 07:20:03;;;;;;;7.95;5.40;;;;;;;11.92;58.23;100049.60;1745747;81;25664;-58
2021/05/04 07:22:31;;;;;;;8.33;4.20;;;;;;;12.10;55.62;100054.39;1786886;79;25622;-59
2021/05/04 07:24:57;;;;;;;7.28;5.10;;;;;;;12.14;54.39;100038.51;1786416;79;25699;-58
2021/05/04 07:27:23;;;;;;;8.50;4.53;;;;;;;12.25;54.50;100040.28;1786428;79;25718;-58
2021/05/04 07:29:50;;;;;;;19.23;5.47;;;;;;;12.45;53.27;100037.97;1740624;81;25608;-59
2021/05/04 07:32:18;;;;;;;7.60;4.45;;;;;;;12.67;55.08;100031.46;1726498;81;25560;-64
2021/05/04 07:34:46;;;;;;;5.15;4.28;;;;;;;12.92;53.15;100031.03;1728223;81;25680;-64
2021/05/04 07:37:13;;;;;;;6.65;4.92;;;;;;;13.14;53.39;100023.11;1760590;80;25870;-64
2021/05/04 07:39:41;;;;;;;9.68;4.70;;;;;;;13.36;51.64;100036.92;1745242;81;25829;-64
2021/05/04 07:42:10;;;;;;;9.48;4.62;;;;;;;13.52;51.97;100025.43;1729229;81;25642;-64
2021/05/04 07:44:37;;;;;;;6.12;4.50;;;;;;;13.66;51.28;100032.73;1759457;80;26062;-64
2021/05/04 07:47:04;;;;;;;7.55;5.03;;;;;;;13.77;50.22;100026.30;1760265;80;25686;-64
2021/05/04 07:52:07;;;;;;;7.93;5.50;;;;;;;13.88;48.11;100022.02;1863751;75;38179;-64
2021/05/04 07:54:34;;;;;;;7.97;4.55;;;;;;;13.83;48.68;100009.44;1819381;76;25693;-59
2021/05/04 07:57:00;;;;;;;7.35;4.10;;;;;;;13.93;49.12;100007.42;1848748;76;26142;-59
2021/05/04 07:59:26;;;;;;;5.08;3.95;;;;;;;14.05;48.88;100007.42;1846053;76;26602;-59
2021/05/04 08:01:53;;;;;;;5.50;4.28;;;;;;;14.19;49.74;100011.95;1846094;76;25809;-59
2021/05/04 08:04:20;;;;;;;8.85;4.62;;;;;;;14.28;47.29;100001.53;1846901;76;25411;-59
2021/05/04 08:06:48;;;;;;;5.17;3.75;;;;;;;14.25;46.23;99992.69;1846444;76;25968;-58
2021/05/04 08:09:15;;;;;;;6.75;4.25;;;;;;;14.38;48.63;99986.88;1842297;76;26701;-59
2021/05/04 08:11:42;;;;;;;6.15;4.53;;;;;;;14.66;46.17;99985.40;1845731;76;25696;-58
2021/05/04 08:14:10;;;;;;;5.80;4.47;;;;;;;14.79;45.30;99988.89;1846706;76;25440;-58
2021/05/04 08:16:38;;;;;;;7.42;4.25;;;;;;;14.92;46.33;99989.09;1818624;78;25445;-59
2021/05/04 08:19:06;;;;;;;5.33;4.33;;;;;;;14.93;43.78;99966.96;1817026;78;25729;-58
2021/05/04 08:21:36;;;;;;;5.90;4.03;;;;;;;14.99;44.45;99963.41;1818640;78;25712;-59
2021/05/04 08:24:03;;;;;;;5.03;3.95;;;;;;;15.06;42.99;99954.07;1817504;78;25971;-58
2021/05/04 08:26:29;;;;;;;4.50;3.60;;;;;;;15.13;44.61;99957.56;1801433;78;25511;-58
2021/05/04 08:28:56;;;;;;;4.20;3.70;;;;;;;15.40;44.28;99955.16;1817044;78;25446;-59
2021/05/04 08:31:23;;;;;;;4.60;4.20;;;;;;;15.40;41.24;99959.25;1817891;78;25454;-58
2021/05/04 08:33:51;;;;;;;6.28;3.85;;;;;;;15.28;41.45;99960.89;1809120;78;25919;-58
2021/05/04 08:36:17;;;;;;;5.67;3.30;;;;;;;15.25;41.17;99967.03;1811476;78;26086;-66
2021/05/04 08:38:44;;;;;;;5.55;3.52;;;;;;;15.11;40.64;99950.31;1816966;78;25457;-65
2021/05/04 08:41:15;;;;;;;3.65;3.27;;;;;;;15.14;41.95;99948.27;1810756;79;25376;-65
2021/05/04 08:43:47;;;;;;;4.60;3.00;;;;;;;15.26;40.34;99942.74;1798488;79;25708;-64
2021/05/04 08:46:15;;;;;;;5.37;3.42;;;;;;;15.35;42.20;99937.12;1789289;79;25700;-64
2021/05/04 08:48:43;;;;;;;4.83;3.40;;;;;;;15.52;42.46;99935.22;1789223;79;25366;-71
2021/05/04 08:51:12;;;;;;;5.95;3.30;;;;;;;15.70;43.25;99937.83;1784554;79;25639;-69
2021/05/04 08:53:40;;;;;;;4.25;3.45;;;;;;;15.86;42.41;99935.89;1779199;79;25421;-59
2021/05/04 08:56:13;;;;;;;6.30;3.42;;;;;;;15.89;40.51;99924.86;1777696;79;25451;-58
2021/05/04 08:58:42;;;;;;;3.62;3.20;;;;;;;15.85;41.21;99927.52;1776826;80;27952;-58
2021/05/04 09:01:09;;;;;;;8.28;3.35;;;;;;;15.88;37.96;99920.55;1752883;80;25377;-62
2021/05/04 09:03:44;;;;;;;4.37;3.27;;;;;;;15.67;36.13;99922.95;1777992;79;25388;-57
2021/05/04 09:09:02;;;;;;;5.35;3.55;;;;;;;15.37;37.13;99922.58;1765667;80;25421;-58
2021/05/04 09:19:55;;;;;;;3.45;3.15;;;;;;;14.68;39.56;99890.59;1791239;80;25454;-57
2021/05/04 09:22:10;;;;;;;5.58;3.10;;;;;;;14.66;39.87;99905.91;1794876;78;25474;-58
2021/05/04 09:24:41;;;;;;;3.98;2.83;;;;;;;14.71;39.30;99880.36;1824185;78;25896;-58
2021/05/04 09:27:12;;;;;;;3.90;2.92;;;;;;;14.81;40.54;99887.24;1823983;78;25364;-59
2021/05/04 09:29:55;;;;;;;3.42;2.70;;;;;;;14.96;37.91;99876.17;1824135;78;25506;-58
2021/05/04 09:32:28;;;;;;;5.15;2.65;;;;;;;15.02;40.84;99870.70;1824179;78;25540;-59
2021/05/04 09:35:01;;;;;;;4.15;3.25;;;;;;;15.13;39.49;99873.12;1809581;78;25417;-58
2021/05/04 09:37:36;;;;;;;4.87;3.65;;;;;;;15.13;39.67;99858.92;1791802;80;25925;-58
2021/05/04 09:40:27;;;;;;;4.70;3.60;;;;;;;15.12;39.38;99847.04;1791689;80;25724;-57
2021/05/04 09:43:18;;;;;;;4.47;3.27;;;;;;;15.21;38.55;99857.77;1786536;78;25395;-57
2021/05/04 09:45:51;;;;;;;5.28;3.35;;;;;;;15.23;39.36;99857.62;1813149;78;25431;-57
2021/05/04 09:48:25;;;;;;;3.45;3.00;;;;;;;15.30;38.21;99842.80;1790172;80;25367;-58
2021/05/04 09:51:03;;;;;;;4.92;2.85;;;;;;;15.50;38.25;99838.23;1791054;80;26613;-57
2021/05/04 09:56:31;;;;;;;3.52;2.40;;;;;;;15.78;37.02;99835.19;1847854;76;27356;-61
2021/05/04 09:58:58;;;;;;;3.90;3.08;;;;;;;15.80;37.45;99822.80;1815760;78;25589;-63
2021/05/04 10:01:25;;;;;;;4.33;3.08;;;;;;;15.71;36.01;99819.42;1825718;77;25767;-62
2021/05/04 10:03:55;;;;;;;3.65;2.60;;;;;;;15.65;36.65;99802.56;1854551;77;25649;-64
2021/05/04 10:06:22;;;;;;;3.35;2.77;;;;;;;15.60;37.15;99817.83;1854578;77;25575;-63
2021/05/04 10:08:52;;;;;;;3.98;2.92;;;;;;;15.46;36.70;99803.30;1854117;77;25638;-64
2021/05/04 10:11:22;;;;;;;;;;;;;;;15.37;37.82;99806.77;1854775;77;25578;-60
2021/05/04 10:13:56;;;;;;;5.35;2.80;;;;;;;15.28;35.93;99807.53;1852042;77;26726;-62
2021/05/04 10:16:25;;;;;;;3.62;2.55;;;;;;;15.27;37.55;99790.41;1782597;80;25567;-62
2021/05/04 10:19:02;;;;;;;5.95;2.70;;;;;;;15.19;35.52;99802.27;1772585;80;25580;-62
2021/05/04 10:21:30;;;;;;;3.25;2.62;;;;;;;15.02;34.81;99784.34;1754332;80;25550;-62
2021/05/04 10:23:56;;;;;;;3.98;2.55;;;;;;;15.09;34.23;99784.51;1730261;82;25859;-63
2021/05/04 10:26:29;;;;;;;2.98;2.67;;;;;;;15.22;35.32;99796.67;1757145;81;27752;-63
2021/05/04 10:29:00;;;;;;;5.80;2.87;;;;;;;15.46;35.83;99765.14;1760244;81;25610;-63
2021/05/04 10:31:40;;;;;;;2.70;2.40;;;;;;;15.62;35.02;99757.50;1759138;81;25637;-63
2021/05/04 10:34:34;;;;;;;6.08;2.90;;;;;;;15.54;34.10;99757.91;1761627;79;25698;-64
2021/05/04 10:37:14;;;;;;;4.78;2.60;;;;;;;15.31;33.71;99756.42;1781802;79;25691;-64
2021/05/04 10:39:45;;;;;;;2.85;2.50;;;;;;;15.16;35.73;99768.91;1745356;82;25854;-65
2021/05/04 10:42:17;;;;;;;5.25;2.40;;;;;;;15.08;35.10;99734.47;1745376;82;25609;-63
2021/05/04 10:45:01;;;;;;;2.87;2.58;;;;;;;14.93;35.19;99738.77;1745311;82;25631;-63
2021/05/04 10:47:46;;;;;;;3.50;2.60;;;;;;;14.78;35.42;99737.65;1745366;82;25674;-65
2021/05/04 10:50:27;;;;;;;5.10;2.17;;;;;;;14.67;33.84;99747.46;1745598;80;25656;-65
2021/05/04 10:52:58;;;;;;;3.35;2.45;;;;;;;14.56;35.29;99730.26;1755234;81;26492;-64
2021/05/04 10:55:46;;;;;;;2.80;2.33;;;;;;;14.60;36.45;99741.27;1740506;81;25605;-65
2021/05/04 10:58:17;;;;;;;2.60;2.25;;;;;;;14.63;34.17;99735.70;1740523;81;25641;-66
2021/05/04 11:00:58;;;;;;;5.17;2.70;;;;;;;14.61;36.05;99732.52;1739107;81;25668;-66
2021/05/04 11:03:36;;;;;;;4.08;2.70;;;;;;;14.68;36.07;99725.92;1737199;81;25583;-65
2021/05/04 11:06:13;;;;;;;3.22;2.30;;;;;;;14.68;35.24;99706.29;1752533;81;26602;-68
2021/05/04 11:09:12;;;;;;;3.70;2.15;;;;;;;14.63;36.24;99716.66;1726288;82;26118;-68
2021/05/04 11:11:50;;;;;;;3.83;2.52;;;;;;;14.63;34.92;99712.58;1895822;74;34750;-67
2021/05/04 11:14:22;;;;;;;5.30;3.00;;;;;;;14.55;35.56;99702.03;1856517;76;25591;-66
2021/05/04 11:17:03;;;;;;;4.45;2.90;;;;;;;14.49;34.82;99692.53;1856760;76;25789;-66
2021/05/04 11:19:39;;;;;;;4.55;2.50;;;;;;;14.49;35.92;99684.37;1777636;79;25814;-66
2021/05/04 11:22:19;;;;;;;3.62;2.35;;;;;;;14.50;36.10;99698.99;1809423;78;25697;-64
2021/05/04 11:24:51;;;;;;;3.37;2.40;;;;;;;14.53;34.92;99678.47;1779411;79;25603;-67
2021/05/04 11:27:23;;;;;;;2.90;2.60;;;;;;;14.54;36.51;99684.11;1788232;79;25744;-67
2021/05/04 11:29:53;;;;;;;3.60;2.55;;;;;;;14.64;35.01;99708.69;1788105;78;26740;-59
2021/05/04 11:32:43;;;;;;;6.33;2.70;;;;;;;14.61;35.91;99676.17;1801099;79;25759;-58
2021/05/04 11:35:12;;;;;;;2.70;2.30;;;;;;;14.65;36.53;99671.60;1789021;78;25656;-57
2021/05/04 11:37:48;;;;;;;2.65;2.17;;;;;;;14.69;35.97;99667.60;1787974;78;25580;-57
2021/05/04 11:40:23;;;;;;;5.17;2.45;;;;;;;14.69;36.71;99656.16;1814005;78;25615;-59
2021/05/04 11:42:55;;;;;;;4.17;2.33;;;;;;;14.76;37.27;99654.16;1817791;78;26684;-58
2021/05/04 11:45:30;;;;;;;3.50;2.60;;;;;;;14.80;36.76;99647.47;1825003;78;25648;-58
2021/05/04 11:48:05;;;;;;;4.92;2.45;;;;;;;14.76;36.18;99644.63;1825298;78;25566;-59
2021/05/04 11:50:35;;;;;;;3.47;2.70;;;;;;;14.76;36.94;99643.27;1795161;79;26235;-58
2021/05/04 11:53:14;;;;;;;6.15;2.60;;;;;;;14.85;36.44;99627.55;1774294;78;25802;-57
2021/05/04 11:55:53;;;;;;;4.47;2.87;;;;;;;14.94;36.53;99642.34;1749904;80;25810;-57
2021/05/04 11:58:23;;;;;;;4.35;2.60;;;;;;;15.02;35.58;99638.64;1790784;80;25432;-67
2021/05/04 12:01:00;;;;;;;6.80;2.65;;;;;;;15.03;35.82;99618.99;1788597;79;25640;-66
2021/05/04 12:03:34;;;;;;;5.42;2.60;;;;;;;15.30;35.97;99597.59;1887290;76;25455;-66
2021/05/04 12:06:04;;;;;;;2.95;2.60;;;;;;;15.41;36.22;99603.28;1858110;77;25570;-66
2021/05/04 12:08:31;;;;;;;4.33;2.75;;;;;;;15.54;36.15;99597.69;1857837;77;25751;-67
2021/05/04 12:10:58;;;;;;;4.12;2.55;;;;;;;15.51;34.86;99614.19;1857971;77;25641;-66
2021/05/04 12:13:27;;;;;;;3.77;2.80;;;;;;;15.52;34.48;99586.36;1849715;76;25566;-67
2021/05/04 12:16:05;;;;;;;4.47;2.95;;;;;;;15.55;35.21;99582.92;1813048;77;32500;-66
2021/05/04 12:18:36;;;;;;;5.37;2.65;;;;;;;15.56;34.69;99575.75;1849059;77;26336;-67
2021/05/04 12:21:08;;;;;;;5.08;2.85;;;;;;;15.52;35.01;99578.96;1848745;77;26646;-67
2021/05/04 12:23:42;;;;;;;3.77;3.02;;;;;;;15.49;35.26;99573.67;1775795;80;25612;-66
2021/05/04 12:26:18;;;;;;;3.72;2.42;;;;;;;15.29;34.41;99564.70;1779467;80;25857;-63
2021/05/04 12:28:53;;;;;;;3.67;2.40;;;;;;;15.15;35.85;99558.94;1780157;80;25601;-66
2021/05/04 12:31:31;;;;;;;4.45;3.40;;;;;;;15.07;35.55;99556.66;1780309;80;25677;-64
2021/05/04 12:33:58;;;;;;;5.08;2.70;;;;;;;14.94;35.90;99553.27;1779472;80;26242;-65
2021/05/04 12:39:29;;;;;;;3.25;2.58;;;;;;;14.94;36.22;99543.73;1846681;76;35214;-66
2021/05/04 12:41:59;;;;;;;5.83;2.52;;;;;;;14.90;36.98;99533.34;1818394;78;25399;-67
2021/05/04 12:44:32;;;;;;;4.72;2.60;;;;;;;14.91;36.29;99529.49;1818329;78;26658;-67
2021/05/04 12:47:09;;;;;;;4.42;2.52;;;;;;;14.86;36.61;99524.30;1817017;78;25686;-66
2021/05/04 12:49:43;;;;;;;3.55;2.20;;;;;;;14.86;36.75;99518.07;1816830;78;25718;-66
2021/05/04 12:52:15;;;;;;;4.42;2.70;;;;;;;14.90;37.13;99527.91;1817298;78;25686;-65
2021/05/04 12:54:44;;;;;;;4.33;2.80;;;;;;;14.94;37.32;99523.31;1808779;77;25684;-65
2021/05/04 12:57:27;;;;;;;3.60;2.80;;;;;;;14.98;37.09;99518.52;1811512;77;29367;-67
2021/05/04 12:59:55;;;;;;;3.55;2.52;;;;;;;14.96;36.92;99514.78;1806694;77;25553;-67
2021/05/04 13:02:26;;;;;;;3.90;3.15;;;;;;;14.97;37.26;99506.06;1854381;77;25553;-67
2021/05/04 13:07:31;;;;;;;4.15;2.90;;;;;;;15.07;37.10;99521.25;1738914;79;26339;-61
2021/05/04 13:10:14;;;;;;;6.33;3.52;;;;;;;15.17;36.58;99515.81;1720553;83;26094;-63
2021/05/04 13:37:21;;;;;;;4.72;3.25;;;;;;;14.82;37.38;99468.22;1845747;77;25684;-61
2021/05/04 13:47:43;;;;;;;3.25;2.95;;;;;;;14.68;38.13;99415.64;1824615;78;25607;-61
2021/05/04 13:50:12;;;;;;;5.28;3.92;;;;;;;14.66;38.54;99407.83;1824388;78;25639;-61
2021/05/04 13:52:38;;;;;;;5.10;3.75;;;;;;;14.69;38.58;99419.37;1792825;78;26858;-61
2021/05/04 13:55:06;;;;;;;5.83;3.37;;;;;;;14.69;38.47;99412.56;1824277;78;25619;-61
2021/05/04 13:57:35;;;;;;;4.03;3.62;;;;;;;14.67;38.55;99414.05;1824475;78;25619;-61
2021/05/04 14:00:05;;;;;;;9.50;3.90;;;;;;;14.65;38.76;99425.88;1779482;78;25704;-62
2021/05/04 14:02:44;;;;;;;4.80;3.50;;;;;;;14.62;38.84;99436.11;1824378;78;26254;-62
2021/05/04 14:26:53;;;;;;;7.37;3.90;;;;;;;14.62;39.85;99350.38;1797566;78;25779;-63
2021/05/04 14:29:20;;;;;;;3.90;3.50;;;;;;;14.62;39.80;99359.91;1825414;78;25762;-61
2021/05/04 14:31:47;;;;;;;5.22;3.22;;;;;;;14.63;39.67;99373.73;1793217;78;26663;-62
2021/05/04 14:34:14;;;;;;;7.17;3.67;;;;;;;14.64;40.54;99357.05;1804510;78;25527;-62
2021/05/04 15:03:46;;;;;;;7.53;5.47;;;;;;;14.45;42.48;99272.09;1783461;79;25689;-63
2021/05/04 15:06:13;;;;;;;4.70;3.75;;;;;;;14.42;42.57;99266.03;1645034;87;25699;-65
2021/05/04 15:08:40;;;;;;;4.85;3.00;;;;;;;14.38;42.58;99282.25;1620982;87;25643;-66
2021/05/04 15:11:08;;;;;;;5.33;3.67;;;;;;;14.36;42.91;99301.45;1645008;87;25600;-66
2021/05/04 15:13:41;;;;;;;5.92;3.83;;;;;;;14.30;43.22;99298.80;1655296;85;26716;-66
2021/05/04 18:21:53;;;;;;;5.20;4.70;;;;;;;13.97;47.58;99131.53;1794299;79;25692;-61
2021/05/04 18:24:22;;;;;;;7.72;5.20;;;;;;;13.96;48.05;99144.89;1794332;79;25694;-60
2021/05/04 18:26:50;;;;;;;5.15;4.25;;;;;;;13.94;48.40;99149.91;1794252;79;25552;-60
2021/05/04 18:29:21;;;;;;;8.60;5.40;;;;;;;13.90;49.11;99159.36;1794308;79;25635;-60
2021/05/04 18:34:36;;;;;;;5.80;5.20;;;;;;;13.80;50.58;99152.55;1831670;75;35155;-62
2021/05/04 18:45:12;;;;;;;;;;;;;;;13.38;51.87;99121.23;1940334;73;26629;-66
2021/05/04 20:10:25;;;;;;;8.33;4.50;;;;;;;12.11;56.95;98992.03;1826324;78;25504;-63
2021/05/04 20:12:45;;;;;;;4.72;3.72;;;;;;;12.10;57.08;98994.51;1824526;78;25886;-62
2021/05/04 20:15:13;;;;;;;5.25;4.40;;;;;;;12.10;57.08;98993.16;1816212;77;25580;-62
2021/05/04 20:17:45;;;;;;;10.93;6.12;;;;;;;12.09;57.12;98992.38;1824505;78;25667;-63
2021/05/04 20:20:19;;;;;;;9.58;5.83;;;;;;;12.09;57.27;98985.60;1821616;78;25602;-62
2021/05/04 20:22:40;;;;;;;13.78;6.58;;;;;;;12.08;57.48;98981.30;1792403;80;25583;-63
2021/05/04 20:25:08;;;;;;;11.20;5.92;;;;;;;12.06;57.54;98979.52;1793573;80;25759;-62
2021/05/04 20:27:35;;;;;;;6.87;5.15;;;;;;;12.04;57.60;98971.54;1772217;79;25622;-63
2021/05/04 20:30:05;;;;;;;9.55;4.83;;;;;;;12.01;57.92;98976.30;1796828;79;25620;-62
2021/05/04 20:32:31;;;;;;;11.73;7.05;;;;;;;12.00;58.25;98976.84;1803812;78;25627;-62
2021/05/04 20:34:58;;;;;;;10.60;5.97;;;;;;;11.97;58.21;98973.50;1819893;78;25651;-61
2021/05/04 20:37:25;;;;;;;14.47;7.50;;;;;;;11.95;58.35;98973.05;1803983;78;27105;-60
2021/05/04 20:39:52;;;;;;;16.93;8.40;;;;;;;11.93;58.39;98976.10;1828679;78;25532;-61
2021/05/04 20:42:19;;;;;;;12.73;7.00;;;;;;;11.91;58.57;98970.83;1803491;78;25660;-61
2021/05/04 20:44:47;;;;;;;10.80;6.53;;;;;;;11.89;58.70;98970.37;1828794;78;25788;-62
2021/05/04 20:47:15;;;;;;;14.23;7.62;;;;;;;11.87;58.85;98974.00;1829127;78;25657;-62
2021/05/04 20:49:42;;;;;;;24.80;12.55;;;;;;;11.84;59.10;98967.34;1799124;78;26655;-63
2021/05/04 20:52:08;;;;;;;24.37;13.05;;;;;;;11.82;59.05;98967.48;1795982;79;25612;-63
2021/05/04 20:54:34;;;;;;;21.37;9.88;;;;;;;11.81;59.29;98966.68;1798964;77;25260;-63
2021/05/04 20:57:02;;;;;;;15.18;8.55;;;;;;;11.79;59.38;98959.48;1817610;77;25583;-63
2021/05/04 20:59:29;;;;;;;14.98;7.95;;;;;;;11.76;59.47;98961.52;1761294;80;25569;-65
2021/05/04 21:01:56;;;;;;;13.78;7.78;;;;;;;11.76;59.66;98958.81;1778888;80;26331;-64
2021/05/04 21:04:23;;;;;;;10.05;5.85;;;;;;;11.76;59.73;98969.66;1787447;80;25536;-63
2021/05/04 21:06:51;;;;;;;6.92;5.50;;;;;;;11.75;59.74;98972.16;1793749;79;25674;-62
2021/05/04 21:09:24;;;;;;;10.73;6.03;;;;;;;11.74;60.01;98972.70;1787744;80;26074;-63
2021/05/04 21:14:17;;;;;;;10.50;6.85;;;;;;;11.74;59.96;98977.34;1746475;80;25754;-62
2021/05/04 21:16:45;;;;;;;11.65;6.08;;;;;;;11.73;60.02;98972.50;1743297;82;25689;-63
2021/05/04 21:24:37;;;;;;;23.38;11.53;;;;;;;11.68;60.44;98978.18;1817607;78;25667;-61
2021/05/04 21:29:29;;;;;;;13.80;7.80;;;;;;;11.68;60.04;98982.24;1786078;78;25795;-61
2021/05/04 21:31:55;;;;;;;12.85;7.35;;;;;;;11.70;60.03;98979.19;1817690;78;25620;-61
2021/05/04 21:34:23;;;;;;;9.05;6.40;;;;;;;11.73;60.04;98977.92;1782720;78;25700;-61
2021/05/04 21:36:59;;;;;;;10.35;6.55;;;;;;;11.75;59.69;98974.87;1810891;78;25667;-62
2021/05/04 21:39:26;;;;;;;11.93;6.70;;;;;;;11.78;59.68;98983.62;1817513;78;26349;-63
2021/05/04 21:41:54;;;;;;;10.18;6.58;;;;;;;11.80;59.57;98985.99;1790385;78;26227;-62
2021/05/04 21:44:21;;;;;;;10.40;6.67;;;;;;;11.82;59.55;98986.45;1755016;80;25672;-63
2021/05/04 21:46:48;;;;;;;10.38;7.00;;;;;;;11.84;59.32;98983.59;1785266;80;25548;-62
2021/05/04 21:49:16;;;;;;;10.93;6.45;;;;;;;11.86;59.25;98988.09;1785512;80;25743;-62
2021/05/04 21:51:42;;;;;;;12.30;6.35;;;;;;;11.88;59.16;98997.23;1785562;80;26153;-62
2021/05/04 21:54:10;;;;;;;9.33;6.37;;;;;;;11.90;58.93;98998.47;1813788;78;26157;-64
2021/05/04 21:56:36;;;;;;;9.33;5.90;;;;;;;11.91;58.90;98997.92;1817703;78;25572;-62
2021/05/04 21:59:04;;;;;;;8.93;5.97;;;;;;;11.92;58.81;99000.86;1817626;78;25640;-63
2021/05/04 22:01:33;;;;;;;9.95;6.60;;;;;;;11.92;58.71;99005.70;1817584;78;25785;-63
2021/05/04 22:04:00;;;;;;;8.78;5.78;;;;;;;11.93;58.89;99002.42;1817878;78;25734;-62
2021/05/04 22:06:27;;;;;;;11.18;6.80;;;;;;;11.93;58.53;98999.13;1813439;78;25596;-62
2021/05/04 22:08:55;;;;;;;8.98;6.05;;;;;;;11.94;58.38;99000.72;1776417;79;25665;-62
2021/05/04 22:11:26;;;;;;;10.18;6.05;;;;;;;11.96;58.25;98996.31;1816170;79;25585;-62
2021/05/04 22:13:55;;;;;;;9.83;6.20;;;;;;;11.98;58.15;98994.61;1748961;81;25592;-62
